M-RH(METAR)
10/20 06:00
METAR M-RH 192100Z 00000KT 9999 FEW005 BKN020 OVC040 15/14 Q1016 RMK
1ST005 6CU020 8SC040 A3002=
戻る
トップページへ戻る
IMOC Co,.Ltd.